Mendota, CA

3:19 AM PST on January 29, 2015 (GMT -0800)
APRSWXNET Firebaugh CA US | Change Station
CLOSE
Current Station
Personal Weather Station
Location: Firebaugh, CA
Elevation: 223 ft
Nearby Weather Stations
Active Advisory: Dense Fog Advisory

Elev 223 ft 36.81 °N, 120.53 °W | Updated 45 minutes ago

Fog
Fog
42 °F
Feels Like 42 °F
N
1
Wind Variable Wind from West
Gusts 3.0 mph

Today
High -- | Low -- °F
--% Chance of Precip.
Yesterday
High -- | Low -- °F
Precip. -- in
7:05 AM 5:23 PM
Waxing Gibbous, 73% visible
Pressure 30.16 in
Visibility 0.2 miles
Clouds
Windchill 42 °F
Dew Point 40 °F
Humidity 94%
Rainfall 0.01 in
Snow Depth Not available.
UV Not available.
Pollen 4.70 out of 12
Air Quality Not available.
Flu Activity Not available.
SPECI KMAE 291108Z AUTO 14004KT 1/4SM FG VV006 08/06 A3016 RMK AO2 T00780061

More Conditions Fewer Conditions

Pressure 30.16 in
Visibility 0.2 miles
Clouds
Windchill 42 °F
Dew Point 40 °F
Humidity 94%
Rainfall 0.01 in
Snow Depth Not available.
UV Not available.
Pollen 4.70 out of 12
Air Quality Not available.
Flu Activity Not available.
SPECI KMAE 291108Z AUTO 14004KT 1/4SM FG VV006 08/06 A3016 RMK AO2 T00780061

More Conditions Fewer Conditions

10-Day Weather Forecast

Almanac

Astronomy

Jan. 29, 2015 Rise Set
Actual Time
Civil Twilight
Nautical Twilight
Astronomical Twilight
Moon
Length of Visible Light
Length of Day
Tomorrow will be .
, % of the Moon is Illuminated

Today's Extremes

State Highs State Lows

Community

WunderPhotos

Upload Photos

1,791,403 photos uploaded!

WunderBlogs® & News

Nearby

Air Quality

  Air Quality AQ Index Pollutant
Not available.

Snow Depth

Station Depth Elevation

Earthquake Activity

City Distance Mag. Time & Date
Minimum magnitude displayed is 2.5.

Coastal Water Temperatures

Place Temperature

Nearby Weather Stations